sensor_id;sensor_type;location;lat;lon;timestamp;pressure;altitude;pressure_sealevel;temperature;humidity
55679;BME280;41573;51.446;-2.018;2022-09-28T00:01:38;99209.91;;;7.72;100.00
55679;BME280;41573;51.446;-2.018;2022-09-28T00:04:04;99211.59;;;7.73;100.00
55679;BME280;41573;51.446;-2.018;2022-09-28T00:06:31;99210.97;;;7.69;100.00
55679;BME280;41573;51.446;-2.018;2022-09-28T00:08:57;99220.09;;;7.65;100.00
55679;BME280;41573;51.446;-2.018;2022-09-28T00:11:23;99219.31;;;7.63;100.00
55679;BME280;41573;51.446;-2.018;2022-09-28T00:13:54;99217.88;;;7.59;100.00
55679;BME280;41573;51.446;-2.018;2022-09-28T00:16:29;99219.88;;;7.55;100.00
55679;BME280;41573;51.446;-2.018;2022-09-28T00:18:56;99209.50;;;7.52;100.00
55679;BME280;41573;51.446;-2.018;2022-09-28T00:21:24;99213.09;;;7.51;100.00
55679;BME280;41573;51.446;-2.018;2022-09-28T00:23:53;99215.75;;;7.51;100.00
55679;BME280;41573;51.446;-2.018;2022-09-28T00:26:38;99218.38;;;7.51;100.00
55679;BME280;41573;51.446;-2.018;2022-09-28T00:29:06;99212.97;;;7.53;100.00
55679;BME280;41573;51.446;-2.018;2022-09-28T00:31:32;99206.50;;;7.57;100.00
55679;BME280;41573;51.446;-2.018;2022-09-28T00:33:59;99203.53;;;7.62;100.00
55679;BME280;41573;51.446;-2.018;2022-09-28T00:36:27;99202.25;;;7.67;100.00
55679;BME280;41573;51.446;-2.018;2022-09-28T00:38:56;99199.50;;;7.69;100.00
55679;BME280;41573;51.446;-2.018;2022-09-28T00:41:24;99193.38;;;7.68;100.00
55679;BME280;41573;51.446;-2.018;2022-09-28T00:43:49;99201.53;;;7.65;100.00
55679;BME280;41573;51.446;-2.018;2022-09-28T00:46:30;99202.25;;;7.67;100.00
55679;BME280;41573;51.446;-2.018;2022-09-28T00:49:02;99193.59;;;7.65;100.00
55679;BME280;41573;51.446;-2.018;2022-09-28T00:51:32;99198.88;;;7.65;100.00
55679;BME280;41573;51.446;-2.018;2022-09-28T00:54:01;99199.09;;;7.62;100.00
55679;BME280;41573;51.446;-2.018;2022-09-28T00:56:30;99202.16;;;7.56;100.00
55679;BME280;41573;51.446;-2.018;2022-09-28T00:58:58;99200.59;;;7.53;100.00
55679;BME280;41573;51.446;-2.018;2022-09-28T01:01:25;99199.22;;;7.48;100.00
55679;BME280;41573;51.446;-2.018;2022-09-28T01:03:51;99209.06;;;7.46;100.00
55679;BME280;41573;51.446;-2.018;2022-09-28T01:06:20;99206.41;;;7.46;100.00
55679;BME280;41573;51.446;-2.018;2022-09-28T01:08:48;99209.38;;;7.41;100.00
55679;BME280;41573;51.446;-2.018;2022-09-28T01:11:17;99207.56;;;7.41;100.00
55679;BME280;41573;51.446;-2.018;2022-09-28T01:13:43;99207.47;;;7.43;100.00
55679;BME280;41573;51.446;-2.018;2022-09-28T01:16:21;99202.28;;;7.41;100.00
55679;BME280;41573;51.446;-2.018;2022-09-28T01:19:00;99211.94;;;7.42;100.00
55679;BME280;41573;51.446;-2.018;2022-09-28T01:21:37;99213.09;;;7.38;100.00
55679;BME280;41573;51.446;-2.018;2022-09-28T01:26:49;99202.28;;;7.29;100.00
55679;BME280;41573;51.446;-2.018;2022-09-28T01:31:54;99203.09;;;7.16;100.00
55679;BME280;41573;51.446;-2.018;2022-09-28T01:34:29;99213.69;;;7.03;100.00
55679;BME280;41573;51.446;-2.018;2022-09-28T01:37:00;99208.09;;;6.95;100.00
55679;BME280;41573;51.446;-2.018;2022-09-28T01:39:35;99204.06;;;6.89;100.00
55679;BME280;41573;51.446;-2.018;2022-09-28T01:42:07;99200.53;;;6.89;100.00
55679;BME280;41573;51.446;-2.018;2022-09-28T01:44:39;99203.84;;;6.93;100.00
55679;BME280;41573;51.446;-2.018;2022-09-28T01:47:09;99199.28;;;6.95;100.00
55679;BME280;41573;51.446;-2.018;2022-09-28T01:49:41;99189.34;;;6.98;100.00
55679;BME280;41573;51.446;-2.018;2022-09-28T01:52:43;99194.00;;;7.07;100.00
55679;BME280;41573;51.446;-2.018;2022-09-28T01:55:16;99182.56;;;7.07;100.00
55679;BME280;41573;51.446;-2.018;2022-09-28T01:57:54;99189.47;;;7.10;100.00
55679;BME280;41573;51.446;-2.018;2022-09-28T02:00:22;99183.41;;;7.07;100.00
55679;BME280;41573;51.446;-2.018;2022-09-28T02:02:55;99186.06;;;7.07;100.00
55679;BME280;41573;51.446;-2.018;2022-09-28T02:05:29;99189.47;;;7.10;100.00
55679;BME280;41573;51.446;-2.018;2022-09-28T02:10:59;99195.94;;;7.18;100.00
55679;BME280;41573;51.446;-2.018;2022-09-28T02:16:03;99192.13;;;7.22;100.00
55679;BME280;41573;51.446;-2.018;2022-09-28T02:18:30;99193.16;;;7.20;100.00
55679;BME280;41573;51.446;-2.018;2022-09-28T02:21:00;99190.75;;;7.17;100.00
55679;BME280;41573;51.446;-2.018;2022-09-28T02:23:34;99189.97;;;7.15;100.00
55679;BME280;41573;51.446;-2.018;2022-09-28T02:26:04;99186.72;;;7.11;100.00
55679;BME280;41573;51.446;-2.018;2022-09-28T02:28:30;99183.19;;;7.11;100.00
55679;BME280;41573;51.446;-2.018;2022-09-28T02:30:56;99183.41;;;7.07;100.00
55679;BME280;41573;51.446;-2.018;2022-09-28T02:33:35;99184.16;;;7.10;100.00
55679;BME280;41573;51.446;-2.018;2022-09-28T02:36:02;99189.13;;;7.01;100.00
55679;BME280;41573;51.446;-2.018;2022-09-28T02:38:29;99180.47;;;6.99;100.00
55679;BME280;41573;51.446;-2.018;2022-09-28T02:41:25;99182.25;;;6.99;100.00
55679;BME280;41573;51.446;-2.018;2022-09-28T02:46:31;99190.19;;;6.99;100.00
55679;BME280;41573;51.446;-2.018;2022-09-28T02:49:29;99189.56;;;6.95;100.00
55679;BME280;41573;51.446;-2.018;2022-09-28T03:00:04;99191.88;;;6.87;100.00
55679;BME280;41573;51.446;-2.018;2022-09-28T03:02:50;99195.47;;;6.86;100.00
55679;BME280;41573;51.446;-2.018;2022-09-28T03:05:45;99203.41;;;6.86;100.00
55679;BME280;41573;51.446;-2.018;2022-09-28T03:08:28;99201.16;;;6.80;100.00
55679;BME280;41573;51.446;-2.018;2022-09-28T03:10:59;99203.91;;;6.78;100.00
55679;BME280;41573;51.446;-2.018;2022-09-28T03:13:27;99204.75;;;6.79;100.00
55679;BME280;41573;51.446;-2.018;2022-09-28T03:16:14;99204.75;;;6.79;100.00
55679;BME280;41573;51.446;-2.018;2022-09-28T03:18:40;99199.66;;;6.76;100.00
55679;BME280;41573;51.446;-2.018;2022-09-28T03:21:06;99202.44;;;6.74;100.00
55679;BME280;41573;51.446;-2.018;2022-09-28T03:23:31;99197.97;;;6.75;100.00
55679;BME280;41573;51.446;-2.018;2022-09-28T03:25:57;99197.34;;;6.71;100.00
55679;BME280;41573;51.446;-2.018;2022-09-28T03:28:23;99201.75;;;6.70;100.00
55679;BME280;41573;51.446;-2.018;2022-09-28T03:30:49;99197.41;;;6.69;100.00
55679;BME280;41573;51.446;-2.018;2022-09-28T03:33:14;99201.97;;;6.67;100.00
55679;BME280;41573;51.446;-2.018;2022-09-28T03:35:40;99208.97;;;6.68;100.00
55679;BME280;41573;51.446;-2.018;2022-09-28T03:38:06;99197.72;;;6.65;100.00
55679;BME280;41573;51.446;-2.018;2022-09-28T03:40:31;99193.31;;;6.65;100.00
55679;BME280;41573;51.446;-2.018;2022-09-28T03:42:56;99201.97;;;6.67;100.00
55679;BME280;41573;51.446;-2.018;2022-09-28T03:45:23;99199.53;;;6.64;100.00
55679;BME280;41573;51.446;-2.018;2022-09-28T03:47:49;99201.25;;;6.65;100.00
55679;BME280;41573;51.446;-2.018;2022-09-28T03:50:15;99205.78;;;6.63;100.00
55679;BME280;41573;51.446;-2.018;2022-09-28T03:52:40;99204.47;;;6.56;100.00
55679;BME280;41573;51.446;-2.018;2022-09-28T03:55:06;99211.22;;;6.47;100.00
55679;BME280;41573;51.446;-2.018;2022-09-28T03:57:32;99206.34;;;6.41;100.00
55679;BME280;41573;51.446;-2.018;2022-09-28T03:59:57;99206.81;;;6.33;100.00
55679;BME280;41573;51.446;-2.018;2022-09-28T04:02:23;99207.03;;;6.30;100.00
55679;BME280;41573;51.446;-2.018;2022-09-28T04:04:48;99209.22;;;6.24;100.00
55679;BME280;41573;51.446;-2.018;2022-09-28T04:07:13;99203.50;;;6.17;100.00
55679;BME280;41573;51.446;-2.018;2022-09-28T04:09:39;99215.75;;;6.18;100.00
55679;BME280;41573;51.446;-2.018;2022-09-28T04:12:05;99213.00;;;6.19;100.00
55679;BME280;41573;51.446;-2.018;2022-09-28T04:14:31;99213.66;;;6.23;100.00
55679;BME280;41573;51.446;-2.018;2022-09-28T04:16:56;99212.81;;;6.23;100.00
55679;BME280;41573;51.446;-2.018;2022-09-28T04:19:22;99204.78;;;6.24;100.00
55679;BME280;41573;51.446;-2.018;2022-09-28T04:21:48;99203.81;;;6.25;100.00
55679;BME280;41573;51.446;-2.018;2022-09-28T04:24:17;99209.88;;;6.27;100.00
55679;BME280;41573;51.446;-2.018;2022-09-28T04:26:42;99224.88;;;6.27;100.00
55679;BME280;41573;51.446;-2.018;2022-09-28T04:29:09;99218.75;;;6.26;100.00
55679;BME280;41573;51.446;-2.018;2022-09-28T04:31:44;99217.81;;;6.27;100.00
55679;BME280;41573;51.446;-2.018;2022-09-28T04:34:12;99217.81;;;6.27;100.00
55679;BME280;41573;51.446;-2.018;2022-09-28T04:36:38;99222.06;;;6.30;100.00
55679;BME280;41573;51.446;-2.018;2022-09-28T04:39:04;99223.84;;;6.29;100.00
55679;BME280;41573;51.446;-2.018;2022-09-28T04:41:29;99223.84;;;6.29;100.00
55679;BME280;41573;51.446;-2.018;2022-09-28T04:43:56;99225.53;;;6.30;100.00
55679;BME280;41573;51.446;-2.018;2022-09-28T04:46:21;99218.75;;;6.26;100.00
55679;BME280;41573;51.446;-2.018;2022-09-28T04:48:47;99218.09;;;6.23;100.00
55679;BME280;41573;51.446;-2.018;2022-09-28T04:51:12;99216.50;;;6.20;100.00
55679;BME280;41573;51.446;-2.018;2022-09-28T04:53:37;99214.81;;;6.19;100.00
55679;BME280;41573;51.446;-2.018;2022-09-28T04:56:10;99223.56;;;6.19;100.00
55679;BME280;41573;51.446;-2.018;2022-09-28T04:58:35;99222.72;;;6.19;100.00
55679;BME280;41573;51.446;-2.018;2022-09-28T05:01:04;99214.81;;;6.19;100.00
55679;BME280;41573;51.446;-2.018;2022-09-28T05:03:32;99213.66;;;6.23;100.00
55679;BME280;41573;51.446;-2.018;2022-09-28T05:05:58;99209.09;;;6.25;100.00
55679;BME280;41573;51.446;-2.018;2022-09-28T05:08:24;99214.13;;;6.30;100.00
55679;BME280;41573;51.446;-2.018;2022-09-28T05:10:57;99212.94;;;6.34;100.00
55679;BME280;41573;51.446;-2.018;2022-09-28T05:13:24;99211.06;;;6.36;100.00
55679;BME280;41573;51.446;-2.018;2022-09-28T05:15:52;99210.88;;;6.39;100.00
55679;BME280;41573;51.446;-2.018;2022-09-28T05:18:18;99208.88;;;6.43;100.00
55679;BME280;41573;51.446;-2.018;2022-09-28T05:20:43;99210.38;;;6.47;100.00
55679;BME280;41573;51.446;-2.018;2022-09-28T05:23:10;99214.44;;;6.52;100.00
55679;BME280;41573;51.446;-2.018;2022-09-28T05:25:37;99217.69;;;6.56;100.00
55679;BME280;41573;51.446;-2.018;2022-09-28T05:28:02;99212.97;;;6.61;100.00
55679;BME280;41573;51.446;-2.018;2022-09-28T05:30:28;99214.25;;;6.68;100.00
55679;BME280;41573;51.446;-2.018;2022-09-28T05:32:53;99214.88;;;6.72;100.00
55679;BME280;41573;51.446;-2.018;2022-09-28T05:35:19;99209.50;;;6.73;100.00
55679;BME280;41573;51.446;-2.018;2022-09-28T05:37:45;99226.03;;;6.77;100.00
55679;BME280;41573;51.446;-2.018;2022-09-28T05:40:11;99218.94;;;6.78;100.00
55679;BME280;41573;51.446;-2.018;2022-09-28T05:42:36;99222.34;;;6.80;100.00
55679;BME280;41573;51.446;-2.018;2022-09-28T05:45:02;99226.66;;;6.81;100.00
55679;BME280;41573;51.446;-2.018;2022-09-28T05:47:28;99224.97;;;6.80;100.00
55679;BME280;41573;51.446;-2.018;2022-09-28T05:49:54;99227.41;;;6.83;100.00
55679;BME280;41573;51.446;-2.018;2022-09-28T05:52:20;99222.13;;;6.83;100.00
55679;BME280;41573;51.446;-2.018;2022-09-28T05:54:46;99222.13;;;6.83;100.00
55679;BME280;41573;51.446;-2.018;2022-09-28T05:57:12;99224.66;;;6.84;100.00
55679;BME280;41573;51.446;-2.018;2022-09-28T05:59:38;99222.75;;;6.86;100.00
55679;BME280;41573;51.446;-2.018;2022-09-28T06:02:04;99228.81;;;6.88;100.00
55679;BME280;41573;51.446;-2.018;2022-09-28T06:04:30;99223.63;;;6.87;100.00
55679;BME280;41573;51.446;-2.018;2022-09-28T06:06:56;99232.19;;;6.90;100.00
55679;BME280;41573;51.446;-2.018;2022-09-28T06:09:21;99220.56;;;6.93;100.00
55679;BME280;41573;51.446;-2.018;2022-09-28T06:11:51;99219.50;;;6.96;100.00
55679;BME280;41573;51.446;-2.018;2022-09-28T06:14:17;99216.75;;;6.97;100.00
55679;BME280;41573;51.446;-2.018;2022-09-28T06:16:43;99220.16;;;6.99;100.00
55679;BME280;41573;51.446;-2.018;2022-09-28T06:19:09;99211.16;;;7.02;100.00
55679;BME280;41573;51.446;-2.018;2022-09-28T06:21:35;99219.75;;;7.05;100.00
55679;BME280;41573;51.446;-2.018;2022-09-28T06:24:01;99216.03;;;7.08;100.00
55679;BME280;41573;51.446;-2.018;2022-09-28T06:26:27;99217.63;;;7.11;100.00
55679;BME280;41573;51.446;-2.018;2022-09-28T06:28:52;99223.88;;;7.10;100.00
55679;BME280;41573;51.446;-2.018;2022-09-28T06:31:18;99226.41;;;7.11;100.00
55679;BME280;41573;51.446;-2.018;2022-09-28T06:33:48;99228.97;;;7.13;100.00
55679;BME280;41573;51.446;-2.018;2022-09-28T06:36:14;99225.16;;;7.17;100.00
55679;BME280;41573;51.446;-2.018;2022-09-28T06:38:40;99239.13;;;7.19;100.00
55679;BME280;41573;51.446;-2.018;2022-09-28T06:41:06;99237.47;;;7.18;100.00
55679;BME280;41573;51.446;-2.018;2022-09-28T06:43:31;99244.63;;;7.16;100.00
55679;BME280;41573;51.446;-2.018;2022-09-28T06:45:58;99249.09;;;7.15;100.00
55679;BME280;41573;51.446;-2.018;2022-09-28T06:48:23;99254.19;;;7.18;100.00
55679;BME280;41573;51.446;-2.018;2022-09-28T06:50:49;99248.78;;;7.20;100.00
55679;BME280;41573;51.446;-2.018;2022-09-28T06:53:14;99249.72;;;7.19;100.00
55679;BME280;41573;51.446;-2.018;2022-09-28T06:55:45;99252.25;;;7.20;100.00
55679;BME280;41573;51.446;-2.018;2022-09-28T06:58:15;99248.78;;;7.20;100.00
55679;BME280;41573;51.446;-2.018;2022-09-28T07:00:42;99251.31;;;7.21;100.00
55679;BME280;41573;51.446;-2.018;2022-09-28T07:03:17;99245.69;;;7.26;100.00
55679;BME280;41573;51.446;-2.018;2022-09-28T07:05:45;99254.19;;;7.31;100.00
55679;BME280;41573;51.446;-2.018;2022-09-28T07:08:11;99244.25;;;7.35;100.00
55679;BME280;41573;51.446;-2.018;2022-09-28T07:10:44;99247.19;;;7.43;100.00
55679;BME280;41573;51.446;-2.018;2022-09-28T07:13:10;99256.31;;;7.52;100.00
55679;BME280;41573;51.446;-2.018;2022-09-28T07:15:37;99261.00;;;7.61;100.00
55679;BME280;41573;51.446;-2.018;2022-09-28T07:18:04;99255.06;;;7.70;100.00
55679;BME280;41573;51.446;-2.018;2022-09-28T07:20:33;99254.31;;;7.81;100.00
55679;BME280;41573;51.446;-2.018;2022-09-28T07:23:01;99257.38;;;7.88;100.00
55679;BME280;41573;51.446;-2.018;2022-09-28T07:25:28;99255.03;;;7.96;100.00
55679;BME280;41573;51.446;-2.018;2022-09-28T07:27:58;99258.19;;;8.01;100.00
55679;BME280;41573;51.446;-2.018;2022-09-28T07:30:25;99252.47;;;8.07;100.00
55679;BME280;41573;51.446;-2.018;2022-09-28T07:32:52;99265.81;;;8.19;100.00
55679;BME280;41573;51.446;-2.018;2022-09-28T07:35:17;99254.09;;;8.34;100.00
55679;BME280;41573;51.446;-2.018;2022-09-28T07:37:42;99252.50;;;8.44;100.00
55679;BME280;41573;51.446;-2.018;2022-09-28T07:40:08;99254.88;;;8.60;100.00
55679;BME280;41573;51.446;-2.018;2022-09-28T07:42:52;99257.38;;;8.75;100.00
55679;BME280;41573;51.446;-2.018;2022-09-28T07:45:18;99248.03;;;8.93;100.00
55679;BME280;41573;51.446;-2.018;2022-09-28T07:47:45;99258.63;;;9.18;100.00
55679;BME280;41573;51.446;-2.018;2022-09-28T07:50:11;99250.13;;;9.37;100.00
55679;BME280;41573;51.446;-2.018;2022-09-28T07:52:36;99261.84;;;9.45;100.00
55679;BME280;41573;51.446;-2.018;2022-09-28T07:55:02;99256.53;;;9.45;100.00
55679;BME280;41573;51.446;-2.018;2022-09-28T07:57:29;99259.06;;;9.47;100.00
55679;BME280;41573;51.446;-2.018;2022-09-28T07:59:56;99254.72;;;9.46;100.00
55679;BME280;41573;51.446;-2.018;2022-09-28T08:02:21;99257.38;;;9.46;100.00
55679;BME280;41573;51.446;-2.018;2022-09-28T08:04:48;99257.38;;;9.46;100.00
55679;BME280;41573;51.446;-2.018;2022-09-28T08:07:14;99262.56;;;9.47;100.00
55679;BME280;41573;51.446;-2.018;2022-09-28T08:09:43;99261.13;;;9.55;100.00
55679;BME280;41573;51.446;-2.018;2022-09-28T08:12:10;99263.34;;;9.72;100.00
55679;BME280;41573;51.446;-2.018;2022-09-28T08:14:35;99267.34;;;9.78;100.00
55679;BME280;41573;51.446;-2.018;2022-09-28T08:17:03;99252.22;;;9.78;100.00
55679;BME280;41573;51.446;-2.018;2022-09-28T08:19:28;99257.41;;;9.80;100.00
55679;BME280;41573;51.446;-2.018;2022-09-28T08:22:16;99252.81;;;9.82;100.00
55679;BME280;41573;51.446;-2.018;2022-09-28T08:24:43;99248.59;;;10.02;100.00
55679;BME280;41573;51.446;-2.018;2022-09-28T08:27:08;99256.06;;;10.20;100.00
55679;BME280;41573;51.446;-2.018;2022-09-28T08:29:35;99256.31;;;10.39;100.00
55679;BME280;41573;51.446;-2.018;2022-09-28T08:32:00;99258.00;;;10.40;100.00
55679;BME280;41573;51.446;-2.018;2022-09-28T08:34:26;99256.06;;;10.42;100.00
55679;BME280;41573;51.446;-2.018;2022-09-28T08:36:54;99246.38;;;10.52;100.00
55679;BME280;41573;51.446;-2.018;2022-09-28T08:39:20;99254.69;;;10.71;100.00
55679;BME280;41573;51.446;-2.018;2022-09-28T08:44:50;99258.13;;;11.15;100.00
55679;BME280;41573;51.446;-2.018;2022-09-28T08:47:22;99257.94;;;11.28;100.00
55679;BME280;41573;51.446;-2.018;2022-09-28T08:50:13;99255.78;;;11.43;100.00
55679;BME280;41573;51.446;-2.018;2022-09-28T08:52:43;99247.00;;;11.52;100.00
55679;BME280;41573;51.446;-2.018;2022-09-28T08:55:17;99253.03;;;11.54;100.00
55679;BME280;41573;51.446;-2.018;2022-09-28T08:57:54;99246.09;;;11.63;100.00
55679;BME280;41573;51.446;-2.018;2022-09-28T09:00:47;99246.41;;;11.69;100.00
55679;BME280;41573;51.446;-2.018;2022-09-28T09:03:23;99255.59;;;11.55;100.00
55679;BME280;41573;51.446;-2.018;2022-09-28T09:11:25;99250.91;;;11.69;100.00
55679;BME280;41573;51.446;-2.018;2022-09-28T09:22:17;99244.09;;;11.86;100.00
55679;BME280;41573;51.446;-2.018;2022-09-28T09:24:50;99250.22;;;11.98;100.00
55679;BME280;41573;51.446;-2.018;2022-09-28T09:35:30;99246.72;;;11.76;100.00
55679;BME280;41573;51.446;-2.018;2022-09-28T09:44:04;99237.03;;;11.75;100.00
55679;BME280;41573;51.446;-2.018;2022-09-28T09:49:58;99240.19;;;11.59;100.00
55679;BME280;41573;51.446;-2.018;2022-09-28T09:52:10;99244.94;;;11.86;100.00
55679;BME280;41573;51.446;-2.018;2022-09-28T09:54:44;99236.63;;;12.11;100.00
55679;BME280;41573;51.446;-2.018;2022-09-28T09:57:16;99234.06;;;12.40;100.00
55679;BME280;41573;51.446;-2.018;2022-09-28T09:59:44;99233.84;;;12.72;100.00
55679;BME280;41573;51.446;-2.018;2022-09-28T10:04:44;99239.72;;;12.86;100.00
55679;BME280;41573;51.446;-2.018;2022-09-28T10:07:28;99235.50;;;12.83;100.00
55679;BME280;41573;51.446;-2.018;2022-09-28T10:10:00;99228.63;;;12.90;100.00
55679;BME280;41573;51.446;-2.018;2022-09-28T10:12:27;99237.22;;;13.04;100.00
55679;BME280;41573;51.446;-2.018;2022-09-28T10:14:53;99230.31;;;13.11;100.00
55679;BME280;41573;51.446;-2.018;2022-09-28T10:17:20;99224.22;;;13.28;100.00
55679;BME280;41573;51.446;-2.018;2022-09-28T10:19:51;99221.56;;;13.48;100.00
55679;BME280;41573;51.446;-2.018;2022-09-28T10:22:21;99227.50;;;13.42;100.00
55679;BME280;41573;51.446;-2.018;2022-09-28T10:24:50;99229.47;;;13.10;100.00
55679;BME280;41573;51.446;-2.018;2022-09-28T10:27:20;99219.78;;;12.90;100.00
55679;BME280;41573;51.446;-2.018;2022-09-28T10:30:01;99228.75;;;12.79;100.00
55679;BME280;41573;51.446;-2.018;2022-09-28T10:32:49;99222.28;;;12.91;100.00
55679;BME280;41573;51.446;-2.018;2022-09-28T10:35:30;99232.28;;;12.89;100.00
55679;BME280;41573;51.446;-2.018;2022-09-28T10:38:06;99219.63;;;12.82;100.00
55679;BME280;41573;51.446;-2.018;2022-09-28T10:40:44;99226.50;;;12.65;100.00
55679;BME280;41573;51.446;-2.018;2022-09-28T10:46:06;99232.13;;;12.62;100.00
55679;BME280;41573;51.446;-2.018;2022-09-28T10:49:15;99230.59;;;12.88;100.00
55679;BME280;41573;51.446;-2.018;2022-09-28T10:51:46;99223.72;;;12.96;100.00
55679;BME280;41573;51.446;-2.018;2022-09-28T10:54:19;99230.47;;;12.90;100.00
55679;BME280;41573;51.446;-2.018;2022-09-28T10:56:46;99223.69;;;12.76;100.00
55679;BME280;41573;51.446;-2.018;2022-09-28T11:01:58;99224.53;;;13.25;100.00
55679;BME280;41573;51.446;-2.018;2022-09-28T11:04:27;99218.28;;;13.54;100.00
55679;BME280;41573;51.446;-2.018;2022-09-28T11:06:54;99225.19;;;13.57;100.00
55679;BME280;41573;51.446;-2.018;2022-09-28T11:09:31;99218.91;;;13.38;100.00
55679;BME280;41573;51.446;-2.018;2022-09-28T11:11:58;99231.00;;;13.13;100.00
55679;BME280;41573;51.446;-2.018;2022-09-28T11:14:35;99221.16;;;13.23;100.00
55679;BME280;41573;51.446;-2.018;2022-09-28T11:17:33;99213.13;;;13.43;100.00
55679;BME280;41573;51.446;-2.018;2022-09-28T11:22:50;99214.59;;;13.75;100.00
55679;BME280;41573;51.446;-2.018;2022-09-28T11:30:49;99216.59;;;14.01;100.00
55679;BME280;41573;51.446;-2.018;2022-09-28T11:33:21;99212.19;;;14.09;100.00
55679;BME280;41573;51.446;-2.018;2022-09-28T11:44:05;99199.97;;;14.71;100.00
55679;BME280;41573;51.446;-2.018;2022-09-28T11:49:08;99187.06;;;14.84;100.00
55679;BME280;41573;51.446;-2.018;2022-09-28T11:51:40;99192.19;;;14.95;100.00
55679;BME280;41573;51.446;-2.018;2022-09-28T11:54:25;99188.22;;;15.08;100.00
55679;BME280;41573;51.446;-2.018;2022-09-28T11:56:54;99185.94;;;15.13;100.00
55679;BME280;41573;51.446;-2.018;2022-09-28T12:01:56;99186.41;;;14.54;95.24
55679;BME280;41573;51.446;-2.018;2022-09-28T12:07:07;99179.72;;;13.94;99.45
55679;BME280;41573;51.446;-2.018;2022-09-28T12:09:39;99184.19;;;13.76;100.00
55679;BME280;41573;51.446;-2.018;2022-09-28T12:12:34;99176.19;;;13.94;100.00
55679;BME280;41573;51.446;-2.018;2022-09-28T12:15:13;99166.00;;;14.25;100.00
55679;BME280;41573;51.446;-2.018;2022-09-28T12:18:05;99171.41;;;14.61;100.00
55679;BME280;41573;51.446;-2.018;2022-09-28T12:20:34;99158.72;;;14.81;99.17
55679;BME280;41573;51.446;-2.018;2022-09-28T12:23:28;99159.50;;;15.18;96.09
55679;BME280;41573;51.446;-2.018;2022-09-28T12:26:01;99168.63;;;15.33;100.00
55679;BME280;41573;51.446;-2.018;2022-09-28T12:31:02;99166.19;;;15.14;100.00
55679;BME280;41573;51.446;-2.018;2022-09-28T12:33:31;99163.44;;;14.88;100.00
55679;BME280;41573;51.446;-2.018;2022-09-28T12:44:05;99163.94;;;14.19;100.00
55679;BME280;41573;51.446;-2.018;2022-09-28T12:46:43;99159.13;;;14.23;100.00
55679;BME280;41573;51.446;-2.018;2022-09-28T12:51:51;99166.50;;;14.11;100.00
55679;BME280;41573;51.446;-2.018;2022-09-28T12:54:45;99161.56;;;13.88;100.00
55679;BME280;41573;51.446;-2.018;2022-09-28T12:57:28;99160.03;;;13.58;100.00
55679;BME280;41573;51.446;-2.018;2022-09-28T13:00:13;99159.78;;;13.41;100.00
55679;BME280;41573;51.446;-2.018;2022-09-28T13:11:37;99144.84;;;13.86;100.00
55679;BME280;41573;51.446;-2.018;2022-09-28T13:25:33;99131.81;;;14.55;100.00
55679;BME280;41573;51.446;-2.018;2022-09-28T13:28:02;99130.00;;;14.74;100.00
55679;BME280;41573;51.446;-2.018;2022-09-28T13:30:29;99133.19;;;14.95;98.27
55679;BME280;41573;51.446;-2.018;2022-09-28T13:32:59;99140.84;;;14.90;93.40
55679;BME280;41573;51.446;-2.018;2022-09-28T13:35:25;99144.31;;;14.82;95.29
55679;BME280;41573;51.446;-2.018;2022-09-28T13:49:23;99135.78;;;14.15;100.00
55679;BME280;41573;51.446;-2.018;2022-09-28T13:57:20;99128.97;;;14.21;100.00
55679;BME280;41573;51.446;-2.018;2022-09-28T14:02:51;99123.09;;;14.53;100.00
55679;BME280;41573;51.446;-2.018;2022-09-28T14:18:58;99116.66;;;14.82;100.00
55679;BME280;41573;51.446;-2.018;2022-09-28T14:29:43;99113.84;;;15.10;95.64
55679;BME280;41573;51.446;-2.018;2022-09-28T14:34:41;99119.47;;;14.98;100.00
55679;BME280;41573;51.446;-2.018;2022-09-28T14:37:29;99112.16;;;15.09;90.77
55679;BME280;41573;51.446;-2.018;2022-09-28T14:43:21;99121.00;;;15.27;82.87
55679;BME280;41573;51.446;-2.018;2022-09-28T14:45:50;99113.94;;;15.26;83.59
55679;BME280;41573;51.446;-2.018;2022-09-28T14:48:20;99116.63;;;15.26;84.45
55679;BME280;41573;51.446;-2.018;2022-09-28T14:50:46;99111.09;;;15.28;86.59
55679;BME280;41573;51.446;-2.018;2022-09-28T14:53:19;99117.09;;;15.22;82.23
55679;BME280;41573;51.446;-2.018;2022-09-28T14:55:48;99110.47;;;15.08;83.28
55679;BME280;41573;51.446;-2.018;2022-09-28T14:58:25;99102.50;;;14.90;86.87
55679;BME280;41573;51.446;-2.018;2022-09-28T15:01:00;99104.06;;;14.74;89.22
55679;BME280;41573;51.446;-2.018;2022-09-28T15:03:29;99106.97;;;14.63;100.00
55679;BME280;41573;51.446;-2.018;2022-09-28T15:05:56;99097.38;;;14.60;98.18
55679;BME280;41573;51.446;-2.018;2022-09-28T15:08:34;99098.47;;;14.68;100.00
55679;BME280;41573;51.446;-2.018;2022-09-28T15:11:00;99098.00;;;14.72;96.33
55679;BME280;41573;51.446;-2.018;2022-09-28T15:13:27;99105.38;;;14.70;94.07
55679;BME280;41573;51.446;-2.018;2022-09-28T15:16:04;99101.63;;;14.63;93.74
55679;BME280;41573;51.446;-2.018;2022-09-28T15:18:37;99102.00;;;14.50;97.30
55679;BME280;41573;51.446;-2.018;2022-09-28T15:21:11;99102.06;;;14.40;95.49
55679;BME280;41573;51.446;-2.018;2022-09-28T15:23:39;99103.44;;;14.26;100.00
55679;BME280;41573;51.446;-2.018;2022-09-28T15:26:17;99106.47;;;14.13;100.00
55679;BME280;41573;51.446;-2.018;2022-09-28T15:28:44;99115.88;;;14.00;100.00
55679;BME280;41573;51.446;-2.018;2022-09-28T15:31:17;99110.88;;;13.87;100.00
55679;BME280;41573;51.446;-2.018;2022-09-28T15:33:42;99108.56;;;13.74;100.00
55679;BME280;41573;51.446;-2.018;2022-09-28T15:36:39;99113.41;;;13.88;100.00
55679;BME280;41573;51.446;-2.018;2022-09-28T15:39:13;99111.59;;;14.07;100.00
55679;BME280;41573;51.446;-2.018;2022-09-28T15:41:44;99109.63;;;14.27;100.00
55679;BME280;41573;51.446;-2.018;2022-09-28T15:46:45;99109.63;;;14.45;100.00
55679;BME280;41573;51.446;-2.018;2022-09-28T15:49:24;99108.00;;;14.52;99.74
55679;BME280;41573;51.446;-2.018;2022-09-28T15:51:52;99098.38;;;14.59;88.95
55679;BME280;41573;51.446;-2.018;2022-09-28T15:54:23;99104.16;;;14.64;90.77
55679;BME280;41573;51.446;-2.018;2022-09-28T15:56:53;99094.31;;;14.73;91.04